createdAt,value
2023-01-06T00:01:43.730Z,4.78
2023-01-06T00:04:10.296Z,4.63
2023-01-06T00:06:36.892Z,4.63
2023-01-06T00:09:04.207Z,4.64
2023-01-06T00:11:31.059Z,4.56
2023-01-06T00:13:57.808Z,4.53
2023-01-06T00:16:24.352Z,4.50
2023-01-06T00:18:54.781Z,4.37
2023-01-06T00:21:21.410Z,4.37
2023-01-06T00:23:47.951Z,4.43
2023-01-06T00:26:14.891Z,4.48
2023-01-06T00:28:41.417Z,4.54
2023-01-06T00:31:10.202Z,4.49
2023-01-06T00:33:36.909Z,4.47
2023-01-06T00:36:03.879Z,4.46
2023-01-06T00:38:30.403Z,4.56
2023-01-06T00:40:57.084Z,4.66
2023-01-06T00:43:23.863Z,4.56
2023-01-06T00:45:50.687Z,4.72
2023-01-06T00:48:17.492Z,4.83
2023-01-06T00:50:44.168Z,4.85
2023-01-06T00:53:10.778Z,4.84
2023-01-06T00:55:37.402Z,4.82
2023-01-06T00:58:04.114Z,4.78
2023-01-06T01:00:30.846Z,4.77
2023-01-06T01:02:57.501Z,4.82
2023-01-06T01:05:24.255Z,4.86
2023-01-06T01:07:50.865Z,4.95
2023-01-06T01:10:17.540Z,5.01
2023-01-06T01:12:44.158Z,4.93
2023-01-06T01:15:12.065Z,4.90
2023-01-06T01:17:38.642Z,4.96
2023-01-06T01:20:05.607Z,4.91
2023-01-06T01:22:32.198Z,4.90
2023-01-06T01:24:58.768Z,5.00
2023-01-06T01:27:25.353Z,4.88
2023-01-06T01:29:51.863Z,4.83
2023-01-06T01:32:18.413Z,4.76
2023-01-06T01:34:44.930Z,4.82
2023-01-06T01:37:11.459Z,4.79
2023-01-06T01:39:38.182Z,4.76
2023-01-06T01:42:06.304Z,4.84
2023-01-06T01:44:54.769Z,4.83
2023-01-06T01:47:42.174Z,4.84
2023-01-06T01:50:26.494Z,4.79
2023-01-06T01:52:56.450Z,4.71
2023-01-06T01:55:23.640Z,4.75
2023-01-06T01:57:57.291Z,4.78
2023-01-06T02:00:23.888Z,4.75
2023-01-06T02:02:50.484Z,4.74
2023-01-06T02:05:19.734Z,4.61
2023-01-06T02:07:46.684Z,4.51
2023-01-06T02:10:21.353Z,4.48
2023-01-06T02:12:50.533Z,4.63
2023-01-06T02:15:21.543Z,4.66
2023-01-06T02:18:06.811Z,4.56
2023-01-06T02:20:52.207Z,4.61
2023-01-06T02:23:30.831Z,4.52
2023-01-06T02:26:48.988Z,4.38
2023-01-06T02:29:43.000Z,4.44
2023-01-06T02:32:18.958Z,4.38
2023-01-06T02:34:55.082Z,4.31
2023-01-06T02:37:43.907Z,4.16
2023-01-06T02:40:37.716Z,4.18
2023-01-06T02:43:16.372Z,4.25
2023-01-06T02:45:59.065Z,4.34
2023-01-06T02:48:34.668Z,4.46
2023-01-06T02:51:07.231Z,4.51
2023-01-06T02:53:45.409Z,4.46
2023-01-06T02:56:11.901Z,4.41
2023-01-06T02:58:55.340Z,4.43
2023-01-06T03:01:28.035Z,4.58
2023-01-06T03:03:54.752Z,4.70
2023-01-06T03:06:24.301Z,4.76
2023-01-06T03:08:52.044Z,4.76
2023-01-06T03:11:18.635Z,4.79
2023-01-06T03:13:50.588Z,4.84
2023-01-06T03:16:17.589Z,4.91
2023-01-06T03:18:44.895Z,4.90
2023-01-06T03:21:13.798Z,4.88
2023-01-06T03:23:40.597Z,4.89
2023-01-06T03:26:09.180Z,4.91
2023-01-06T03:28:35.720Z,4.96
2023-01-06T03:31:17.456Z,4.94
2023-01-06T03:34:01.911Z,4.92
2023-01-06T03:36:52.915Z,4.99
2023-01-06T03:39:30.195Z,4.93
2023-01-06T03:41:58.685Z,4.97
2023-01-06T03:44:29.684Z,5.01
2023-01-06T03:47:01.293Z,4.84
2023-01-06T03:49:39.050Z,4.67
2023-01-06T03:52:08.170Z,4.67
2023-01-06T03:54:38.349Z,4.61
2023-01-06T03:57:32.147Z,4.66
2023-01-06T04:00:12.682Z,4.59
2023-01-06T04:02:39.258Z,4.65
2023-01-06T04:05:19.768Z,4.53
2023-01-06T04:07:46.730Z,4.47
2023-01-06T04:10:14.102Z,4.39
2023-01-06T04:12:40.651Z,4.28
2023-01-06T04:15:18.258Z,4.25
2023-01-06T04:17:44.867Z,4.26
2023-01-06T04:20:18.284Z,4.20
2023-01-06T04:22:44.893Z,4.12
2023-01-06T04:25:11.538Z,4.06
2023-01-06T04:27:38.279Z,3.99
2023-01-06T04:30:06.040Z,3.98
2023-01-06T04:32:32.788Z,4.04
2023-01-06T04:34:59.425Z,3.92
2023-01-06T04:37:25.996Z,3.87
2023-01-06T04:39:52.555Z,3.92
2023-01-06T04:42:19.288Z,3.99
2023-01-06T04:44:45.799Z,4.04
2023-01-06T04:47:12.370Z,3.95
2023-01-06T04:49:38.950Z,3.80
2023-01-06T04:52:05.688Z,3.77
2023-01-06T04:54:32.347Z,3.73
2023-01-06T04:56:58.944Z,3.74
2023-01-06T04:59:25.673Z,3.73
2023-01-06T05:01:52.259Z,3.74
2023-01-06T05:04:18.854Z,3.71
2023-01-06T05:06:45.469Z,3.49
2023-01-06T05:09:12.115Z,3.42
2023-01-06T05:11:38.648Z,3.48
2023-01-06T05:14:05.180Z,3.65
2023-01-06T05:16:33.464Z,3.58
2023-01-06T05:19:00.277Z,3.56
2023-01-06T05:21:30.871Z,3.51
2023-01-06T05:23:58.914Z,3.61
2023-01-06T05:26:26.438Z,3.62
2023-01-06T05:28:53.244Z,3.78
2023-01-06T05:31:20.374Z,3.62
2023-01-06T05:33:48.203Z,3.58
2023-01-06T05:36:16.180Z,3.67
2023-01-06T05:38:42.838Z,3.70
2023-01-06T05:41:09.354Z,3.68
2023-01-06T05:43:36.286Z,3.82
2023-01-06T05:46:07.246Z,3.74
2023-01-06T05:48:33.814Z,3.78
2023-01-06T05:51:01.931Z,3.79
2023-01-06T05:53:31.065Z,3.88
2023-01-06T05:56:01.934Z,3.99
2023-01-06T05:58:28.529Z,4.01
2023-01-06T06:00:55.113Z,3.97
2023-01-06T06:03:21.842Z,3.96
2023-01-06T06:05:48.461Z,4.01
2023-01-06T06:08:15.195Z,3.86
2023-01-06T06:10:41.929Z,3.92
2023-01-06T06:13:08.611Z,3.84
2023-01-06T06:15:35.300Z,3.76
2023-01-06T06:18:02.436Z,3.70
2023-01-06T06:20:29.042Z,3.75
2023-01-06T06:22:55.760Z,3.63
2023-01-06T06:25:22.416Z,3.68
2023-01-06T06:27:49.095Z,3.65
2023-01-06T06:30:16.508Z,3.63
2023-01-06T06:32:46.526Z,3.59
2023-01-06T06:35:13.054Z,3.62
2023-01-06T06:37:39.598Z,3.65
2023-01-06T06:40:06.704Z,3.65
2023-01-06T06:42:33.521Z,3.55
2023-01-06T06:45:00.272Z,3.53
2023-01-06T06:47:26.874Z,3.57
2023-01-06T06:49:53.549Z,3.58
2023-01-06T06:52:20.228Z,3.67
2023-01-06T06:54:50.194Z,3.71
2023-01-06T06:57:16.753Z,3.66
2023-01-06T06:59:43.312Z,3.62
2023-01-06T07:02:11.552Z,3.76
2023-01-06T07:04:38.214Z,3.75
2023-01-06T07:07:04.722Z,3.86
2023-01-06T07:09:31.450Z,3.94
2023-01-06T07:11:58.032Z,3.98
2023-01-06T07:14:24.692Z,3.86
2023-01-06T07:16:51.311Z,4.00
2023-01-06T07:19:17.985Z,4.37
2023-01-06T07:21:44.497Z,4.51
2023-01-06T07:24:11.041Z,4.59
2023-01-06T07:26:37.688Z,4.66
2023-01-06T07:29:04.366Z,4.80
2023-01-06T07:31:30.974Z,4.80
2023-01-06T07:33:57.612Z,4.84
2023-01-06T07:36:24.180Z,4.82
2023-01-06T07:38:50.689Z,4.86
2023-01-06T07:41:17.197Z,4.94
2023-01-06T07:43:43.897Z,4.93
2023-01-06T07:46:10.572Z,4.99
2023-01-06T07:48:37.405Z,5.08
2023-01-06T07:51:04.015Z,5.16
2023-01-06T07:53:30.748Z,5.19
2023-01-06T07:55:57.292Z,5.24
2023-01-06T07:58:24.100Z,5.18
2023-01-06T08:00:51.388Z,5.22
2023-01-06T08:03:18.134Z,5.27
2023-01-06T08:05:44.943Z,5.32
2023-01-06T08:08:11.598Z,5.41
2023-01-06T08:10:42.045Z,5.52
2023-01-06T08:13:09.399Z,5.52
2023-01-06T08:15:36.616Z,5.65
2023-01-06T08:18:03.324Z,5.75
2023-01-06T08:20:30.170Z,5.84
2023-01-06T08:22:57.887Z,5.93
2023-01-06T08:25:24.452Z,5.94
2023-01-06T08:27:51.185Z,5.89
2023-01-06T08:30:17.822Z,5.94
2023-01-06T08:32:45.461Z,5.97
2023-01-06T08:35:12.008Z,6.06
2023-01-06T08:37:38.498Z,6.16
2023-01-06T08:40:06.314Z,6.16
2023-01-06T08:42:32.888Z,6.40
2023-01-06T08:44:59.673Z,6.48
2023-01-06T08:47:26.359Z,6.63
2023-01-06T08:49:52.911Z,7.03
2023-01-06T08:52:19.479Z,7.25
2023-01-06T08:54:46.103Z,7.53
2023-01-06T08:57:12.851Z,7.80
2023-01-06T08:59:40.249Z,8.33
2023-01-06T09:02:07.464Z,9.10
2023-01-06T09:04:34.059Z,9.91
2023-01-06T09:07:01.292Z,11.32
2023-01-06T09:09:27.851Z,11.34
2023-01-06T09:11:55.267Z,11.14
2023-01-06T09:14:21.788Z,11.56
2023-01-06T09:16:48.336Z,14.22
2023-01-06T09:19:15.240Z,16.78
2023-01-06T09:21:41.780Z,18.17
2023-01-06T09:24:12.782Z,19.13
2023-01-06T09:26:39.357Z,19.19
2023-01-06T09:29:05.839Z,19.55
2023-01-06T09:31:32.494Z,19.65
2023-01-06T09:33:59.210Z,19.44
2023-01-06T09:36:25.790Z,18.78
2023-01-06T09:38:52.356Z,19.35
2023-01-06T09:41:30.886Z,20.07
2023-01-06T09:44:11.392Z,20.12
2023-01-06T09:46:40.554Z,17.77
2023-01-06T09:49:25.278Z,17.22
2023-01-06T09:51:55.556Z,15.54
2023-01-06T09:54:32.868Z,14.77
2023-01-06T09:57:05.157Z,13.17
2023-01-06T09:59:41.171Z,12.18
2023-01-06T10:02:13.584Z,11.21
2023-01-06T10:04:42.153Z,11.33
2023-01-06T10:07:15.162Z,11.90
2023-01-06T10:10:14.449Z,15.68
2023-01-06T10:13:04.123Z,17.37
2023-01-06T10:15:40.733Z,17.77
2023-01-06T10:18:51.946Z,17.17
2023-01-06T10:21:24.712Z,13.23
2023-01-06T10:24:01.513Z,13.13
2023-01-06T10:26:50.713Z,12.51
2023-01-06T10:29:19.156Z,17.42
2023-01-06T10:31:47.315Z,22.38
2023-01-06T10:34:24.690Z,22.10
2023-01-06T10:37:17.386Z,18.25
2023-01-06T10:39:45.629Z,16.39
2023-01-06T10:42:39.096Z,14.28
2023-01-06T10:45:10.702Z,13.89
2023-01-06T10:47:37.258Z,12.10
2023-01-06T10:50:03.946Z,12.16
2023-01-06T10:52:30.505Z,13.22
2023-01-06T10:54:59.919Z,13.56
2023-01-06T10:57:28.007Z,13.32
2023-01-06T11:00:09.054Z,12.53
2023-01-06T11:02:35.816Z,11.64
2023-01-06T11:05:02.526Z,11.07
2023-01-06T11:07:29.764Z,10.85
2023-01-06T11:09:56.351Z,10.62
2023-01-06T11:12:23.994Z,10.60
2023-01-06T11:15:12.042Z,11.12
2023-01-06T11:17:38.690Z,11.20
2023-01-06T11:20:27.674Z,11.04
2023-01-06T11:22:54.425Z,10.92
2023-01-06T11:25:20.855Z,11.09
2023-01-06T11:27:48.000Z,10.88
2023-01-06T11:30:27.769Z,11.13
2023-01-06T11:32:54.576Z,10.96
2023-01-06T11:35:24.005Z,10.96
2023-01-06T11:37:50.705Z,10.86
2023-01-06T11:40:31.100Z,11.10
2023-01-06T11:43:10.032Z,11.17
2023-01-06T11:45:38.775Z,11.64
2023-01-06T11:48:13.673Z,11.57
2023-01-06T11:50:40.226Z,11.28
2023-01-06T11:53:17.223Z,10.67
2023-01-06T11:55:55.816Z,10.24
2023-01-06T11:58:28.860Z,10.16
2023-01-06T12:01:06.577Z,10.00
2023-01-06T12:03:38.974Z,9.66
2023-01-06T12:06:14.588Z,9.51
2023-01-06T12:09:05.445Z,9.33
2023-01-06T12:11:52.497Z,8.83
2023-01-06T12:14:28.844Z,8.93
2023-01-06T12:17:12.544Z,8.68
2023-01-06T12:19:59.477Z,8.70
2023-01-06T12:22:40.555Z,8.81
2023-01-06T12:25:13.932Z,9.08
2023-01-06T12:27:43.979Z,8.79
2023-01-06T12:30:24.108Z,8.69
2023-01-06T12:32:50.628Z,8.38
2023-01-06T12:35:19.404Z,8.27
2023-01-06T12:37:48.051Z,8.43
2023-01-06T12:40:16.486Z,8.37
2023-01-06T12:42:52.049Z,8.18
2023-01-06T12:45:37.815Z,8.37
2023-01-06T12:48:16.511Z,7.99
2023-01-06T12:50:46.339Z,8.06
2023-01-06T12:53:20.528Z,7.84
2023-01-06T12:56:25.740Z,7.78
2023-01-06T12:59:07.213Z,7.82
2023-01-06T13:01:41.423Z,7.80
2023-01-06T13:04:26.501Z,7.87
2023-01-06T13:07:08.264Z,7.62
2023-01-06T13:09:43.684Z,7.46
2023-01-06T13:12:31.292Z,7.44
2023-01-06T13:15:22.971Z,7.53
2023-01-06T13:18:15.345Z,7.84
2023-01-06T13:20:50.266Z,7.80
2023-01-06T13:23:28.880Z,7.53
2023-01-06T13:26:19.848Z,7.64
2023-01-06T13:29:11.179Z,7.52
2023-01-06T13:31:59.641Z,7.47
2023-01-06T13:34:38.235Z,7.42
2023-01-06T13:37:36.446Z,7.26
2023-01-06T13:40:11.297Z,7.36
2023-01-06T13:42:40.832Z,7.25
2023-01-06T13:45:10.033Z,7.32
2023-01-06T13:47:36.573Z,7.39
2023-01-06T13:50:03.186Z,7.31
2023-01-06T13:52:30.695Z,7.28
2023-01-06T13:55:01.745Z,7.32
2023-01-06T13:57:33.791Z,7.23
2023-01-06T14:00:12.768Z,7.29
2023-01-06T14:02:39.284Z,7.23
2023-01-06T14:05:20.922Z,7.24
2023-01-06T14:07:51.924Z,7.25
2023-01-06T14:10:47.928Z,7.36
2023-01-06T14:13:25.459Z,7.32
2023-01-06T14:16:09.816Z,7.21
2023-01-06T14:18:46.430Z,7.32
2023-01-06T14:21:12.837Z,7.41
2023-01-06T14:24:03.023Z,7.29
2023-01-06T14:26:48.329Z,7.29
2023-01-06T14:29:47.337Z,7.30
2023-01-06T14:32:13.774Z,7.30
2023-01-06T14:34:49.290Z,7.23
2023-01-06T14:37:15.993Z,6.97
2023-01-06T14:39:46.697Z,7.10
2023-01-06T14:42:17.092Z,7.10
2023-01-06T14:44:47.273Z,6.99
2023-01-06T14:47:21.632Z,6.94
2023-01-06T14:49:54.419Z,6.88
2023-01-06T14:52:22.589Z,6.92
2023-01-06T14:54:49.372Z,6.87
2023-01-06T14:57:24.054Z,6.87
2023-01-06T15:00:15.649Z,6.95
2023-01-06T15:02:53.469Z,6.82
2023-01-06T15:05:30.611Z,6.81
2023-01-06T15:08:01.238Z,6.89
2023-01-06T15:10:29.230Z,6.79
2023-01-06T15:12:57.011Z,6.81
2023-01-06T15:15:31.388Z,6.68
2023-01-06T15:17:58.866Z,6.76
2023-01-06T15:20:29.071Z,6.80
2023-01-06T15:22:55.614Z,6.77
2023-01-06T15:25:23.693Z,6.77
2023-01-06T15:27:50.536Z,6.86
2023-01-06T15:30:18.763Z,6.75
2023-01-06T15:32:46.609Z,6.69
2023-01-06T15:35:16.486Z,6.67
2023-01-06T15:37:43.216Z,6.74
2023-01-06T15:40:12.236Z,6.81
2023-01-06T15:42:39.315Z,6.69
2023-01-06T15:45:07.765Z,6.74
2023-01-06T15:47:36.521Z,6.62
2023-01-06T15:50:07.923Z,6.56
2023-01-06T15:52:48.515Z,6.56
2023-01-06T15:55:27.060Z,6.46
2023-01-06T15:58:23.370Z,6.55
2023-01-06T16:01:00.603Z,6.56
2023-01-06T16:03:29.700Z,6.54
2023-01-06T16:06:11.979Z,6.40
2023-01-06T16:08:38.957Z,6.38
2023-01-06T16:11:09.190Z,6.41
2023-01-06T16:13:35.755Z,6.44
2023-01-06T16:16:06.094Z,6.35
2023-01-06T16:18:36.603Z,6.34
2023-01-06T16:21:35.681Z,6.27
2023-01-06T16:24:03.979Z,6.30
2023-01-06T16:26:32.232Z,6.41
2023-01-06T16:29:00.171Z,6.34
2023-01-06T16:31:33.289Z,6.37
2023-01-06T16:34:21.470Z,6.36
2023-01-06T16:36:49.452Z,6.35
2023-01-06T16:39:16.482Z,6.40
2023-01-06T16:42:15.157Z,6.40
2023-01-06T16:44:42.467Z,6.37
2023-01-06T16:47:09.121Z,6.32
2023-01-06T16:49:35.681Z,6.37
2023-01-06T16:52:02.332Z,6.39
2023-01-06T16:54:29.034Z,6.39
2023-01-06T16:56:55.589Z,6.41
2023-01-06T16:59:22.396Z,6.44
2023-01-06T17:01:49.248Z,6.51
2023-01-06T17:04:16.123Z,6.34
2023-01-06T17:06:43.596Z,6.29
2023-01-06T17:09:15.236Z,6.32
2023-01-06T17:11:41.961Z,6.30
2023-01-06T17:14:16.442Z,6.34
2023-01-06T17:16:43.465Z,6.34
2023-01-06T17:19:25.735Z,6.29
2023-01-06T17:22:15.955Z,6.17
2023-01-06T17:24:42.462Z,6.19
2023-01-06T17:27:26.994Z,6.24
2023-01-06T17:29:53.829Z,6.22
2023-01-06T17:32:28.678Z,6.17
2023-01-06T17:34:55.190Z,6.22
2023-01-06T17:37:25.965Z,6.13
2023-01-06T17:39:52.588Z,6.21
2023-01-06T17:42:25.313Z,6.24
2023-01-06T17:44:53.375Z,6.23
2023-01-06T17:47:19.835Z,6.27
2023-01-06T17:49:59.300Z,6.16
2023-01-06T17:52:39.587Z,6.25
2023-01-06T17:55:09.063Z,6.24
2023-01-06T17:57:35.598Z,6.25
2023-01-06T18:00:03.493Z,6.20
2023-01-06T18:02:40.599Z,6.19
2023-01-06T18:05:25.475Z,6.09
2023-01-06T18:08:12.594Z,6.04
2023-01-06T18:10:43.259Z,6.09
2023-01-06T18:13:15.448Z,6.08
2023-01-06T18:15:42.028Z,6.02
2023-01-06T18:18:24.486Z,6.06
2023-01-06T18:20:58.678Z,6.02
2023-01-06T18:23:25.383Z,5.92
2023-01-06T18:25:56.256Z,5.89
2023-01-06T18:28:22.838Z,5.91
2023-01-06T18:30:56.964Z,5.93
2023-01-06T18:33:23.709Z,5.91
2023-01-06T18:35:50.651Z,5.96
2023-01-06T18:38:17.141Z,5.95
2023-01-06T18:40:43.727Z,5.96
2023-01-06T18:43:22.998Z,5.95
2023-01-06T18:45:50.992Z,5.93
2023-01-06T18:48:19.523Z,5.88
2023-01-06T18:50:46.530Z,5.92
2023-01-06T18:53:13.066Z,5.85
2023-01-06T18:55:42.989Z,5.90
2023-01-06T18:58:22.163Z,5.89
2023-01-06T19:00:55.282Z,5.97
2023-01-06T19:03:31.752Z,5.94
2023-01-06T19:06:13.423Z,5.97
2023-01-06T19:08:40.473Z,5.89
2023-01-06T19:11:14.304Z,5.90
2023-01-06T19:13:40.919Z,5.86
2023-01-06T19:16:24.158Z,5.90
2023-01-06T19:18:50.735Z,5.93
2023-01-06T19:21:17.371Z,5.89
2023-01-06T19:23:44.027Z,6.00
2023-01-06T19:26:31.767Z,5.82
2023-01-06T19:29:00.649Z,5.90
2023-01-06T19:31:27.299Z,5.96
2023-01-06T19:33:58.627Z,5.92
2023-01-06T19:36:45.236Z,5.94
2023-01-06T19:39:26.718Z,5.95
2023-01-06T19:41:55.178Z,5.97
2023-01-06T19:44:30.753Z,6.02
2023-01-06T19:46:57.178Z,5.97
2023-01-06T19:49:25.398Z,5.95
2023-01-06T19:51:53.813Z,5.92
2023-01-06T19:54:27.987Z,5.90
2023-01-06T19:56:55.697Z,5.94
2023-01-06T19:59:36.240Z,5.87
2023-01-06T20:02:08.795Z,5.84
2023-01-06T20:04:35.593Z,5.81
2023-01-06T20:07:02.380Z,5.92
2023-01-06T20:09:30.152Z,5.92
2023-01-06T20:11:57.416Z,5.80
2023-01-06T20:14:23.891Z,5.83
2023-01-06T20:16:50.517Z,5.86
2023-01-06T20:19:17.109Z,5.87
2023-01-06T20:21:43.738Z,5.69
2023-01-06T20:24:10.844Z,5.65
2023-01-06T20:26:37.376Z,5.64
2023-01-06T20:29:04.047Z,5.58
2023-01-06T20:31:30.957Z,5.69
2023-01-06T20:33:57.598Z,5.79
2023-01-06T20:36:24.198Z,5.82
2023-01-06T20:38:50.874Z,5.71
2023-01-06T20:41:17.419Z,5.80
2023-01-06T20:43:43.893Z,5.86
2023-01-06T20:46:10.455Z,5.93
2023-01-06T20:48:37.098Z,5.88
2023-01-06T20:51:03.672Z,5.84
2023-01-06T20:53:30.234Z,5.82
2023-01-06T20:55:56.753Z,5.83
2023-01-06T20:58:23.700Z,5.81
2023-01-06T21:00:50.270Z,5.80
2023-01-06T21:03:16.829Z,5.78
2023-01-06T21:05:43.361Z,5.81
2023-01-06T21:08:10.039Z,5.82
2023-01-06T21:10:36.583Z,5.79
2023-01-06T21:13:03.137Z,5.80
2023-01-06T21:15:29.677Z,5.84
2023-01-06T21:17:56.384Z,5.85
2023-01-06T21:20:22.911Z,5.88
2023-01-06T21:22:49.502Z,5.81
2023-01-06T21:25:16.317Z,5.78
2023-01-06T21:27:42.861Z,5.82
2023-01-06T21:30:09.875Z,5.77
2023-01-06T21:32:36.430Z,5.84
2023-01-06T21:35:03.067Z,5.80
2023-01-06T21:37:29.571Z,5.77
2023-01-06T21:39:56.119Z,5.87
2023-01-06T21:42:22.614Z,5.88
2023-01-06T21:44:49.212Z,5.85
2023-01-06T21:47:15.762Z,5.70
2023-01-06T21:49:42.276Z,5.80
2023-01-06T21:52:08.957Z,5.70
2023-01-06T21:54:35.457Z,5.70
2023-01-06T21:57:02.315Z,5.79
2023-01-06T21:59:28.867Z,5.67
2023-01-06T22:01:55.491Z,5.74
2023-01-06T22:04:22.101Z,5.73
2023-01-06T22:06:48.623Z,5.79
2023-01-06T22:09:15.434Z,5.90
2023-01-06T22:11:41.956Z,5.92
2023-01-06T22:14:08.961Z,5.97
2023-01-06T22:16:36.149Z,5.91
2023-01-06T22:19:02.659Z,5.91
2023-01-06T22:21:29.169Z,5.91
2023-01-06T22:23:55.678Z,5.96
2023-01-06T22:26:22.393Z,5.93
2023-01-06T22:28:48.921Z,5.93
2023-01-06T22:31:15.453Z,5.86
2023-01-06T22:33:42.064Z,5.92
2023-01-06T22:36:08.916Z,5.80
2023-01-06T22:38:35.444Z,5.82
2023-01-06T22:41:01.946Z,5.83
2023-01-06T22:43:28.445Z,5.80
2023-01-06T22:45:55.588Z,5.80
2023-01-06T22:48:22.359Z,5.82
2023-01-06T22:50:59.255Z,5.80
2023-01-06T22:53:26.796Z,5.72
2023-01-06T22:56:00.655Z,5.62
2023-01-06T22:58:27.374Z,5.53
2023-01-06T23:00:53.825Z,5.59
2023-01-06T23:03:20.821Z,5.59
2023-01-06T23:05:57.450Z,5.68
2023-01-06T23:08:25.097Z,5.56
2023-01-06T23:10:57.400Z,5.64
2023-01-06T23:13:23.914Z,5.67
2023-01-06T23:16:01.540Z,5.70
2023-01-06T23:18:28.100Z,5.64
2023-01-06T23:21:10.901Z,5.67
2023-01-06T23:23:38.063Z,5.61
2023-01-06T23:26:10.117Z,5.69
2023-01-06T23:28:36.841Z,5.66
2023-01-06T23:31:11.462Z,5.68
2023-01-06T23:33:39.081Z,5.70
2023-01-06T23:36:06.772Z,5.58
2023-01-06T23:38:33.410Z,5.61
2023-01-06T23:41:07.338Z,5.57
2023-01-06T23:43:34.431Z,5.56
2023-01-06T23:46:05.922Z,5.46
2023-01-06T23:48:32.717Z,5.60
2023-01-06T23:50:59.470Z,5.58
2023-01-06T23:53:26.174Z,5.49
2023-01-06T23:55:59.958Z,5.56
2023-01-06T23:58:27.244Z,5.59
